sensor_id;sensor_type;location;lat;lon;timestamp;pressure;altitude;pressure_sealevel;temperature;humidity
21236;BME280;10775;42.678;26.324;2024-03-07T00:00:43;98814.44;;;8.56;100.00
21236;BME280;10775;42.678;26.324;2024-03-07T00:03:08;98817.91;;;8.60;100.00
21236;BME280;10775;42.678;26.324;2024-03-07T00:05:34;98812.66;;;8.61;100.00
21236;BME280;10775;42.678;26.324;2024-03-07T00:07:59;98811.75;;;8.64;100.00
21236;BME280;10775;42.678;26.324;2024-03-07T00:10:25;98816.97;;;8.64;100.00
21236;BME280;10775;42.678;26.324;2024-03-07T00:12:50;98819.66;;;8.58;100.00
21236;BME280;10775;42.678;26.324;2024-03-07T00:15:16;98814.38;;;8.64;100.00
21236;BME280;10775;42.678;26.324;2024-03-07T00:17:42;98810.00;;;8.67;100.00
21236;BME280;10775;42.678;26.324;2024-03-07T00:20:09;98814.47;;;8.53;100.00
21236;BME280;10775;42.678;26.324;2024-03-07T00:22:39;98813.66;;;8.49;100.00
21236;BME280;10775;42.678;26.324;2024-03-07T00:25:06;98808.50;;;8.39;100.00
21236;BME280;10775;42.678;26.324;2024-03-07T00:27:32;98811.94;;;8.47;100.00
21236;BME280;10775;42.678;26.324;2024-03-07T00:30:04;98806.69;;;8.52;100.00
21236;BME280;10775;42.678;26.324;2024-03-07T00:32:30;98801.47;;;8.52;100.00
21236;BME280;10775;42.678;26.324;2024-03-07T00:35:00;98799.63;;;8.63;100.00
21236;BME280;10775;42.678;26.324;2024-03-07T00:37:28;98804.78;;;8.66;100.00
21236;BME280;10775;42.678;26.324;2024-03-07T00:39:53;98803.03;;;8.68;100.00
21236;BME280;10775;42.678;26.324;2024-03-07T00:42:19;98798.75;;;8.62;100.00
21236;BME280;10775;42.678;26.324;2024-03-07T00:44:44;98795.50;;;8.37;100.00
21236;BME280;10775;42.678;26.324;2024-03-07T00:47:10;98792.03;;;8.37;100.00
21236;BME280;10775;42.678;26.324;2024-03-07T00:49:36;98787.66;;;8.42;100.00
21236;BME280;10775;42.678;26.324;2024-03-07T00:52:02;98789.28;;;8.54;100.00
21236;BME280;10775;42.678;26.324;2024-03-07T00:54:27;98781.38;;;8.64;100.00
21236;BME280;10775;42.678;26.324;2024-03-07T00:56:52;98784.03;;;8.58;100.00
21236;BME280;10775;42.678;26.324;2024-03-07T00:59:20;98778.84;;;8.54;100.00
21236;BME280;10775;42.678;26.324;2024-03-07T01:01:45;98781.53;;;8.49;100.00
21236;BME280;10775;42.678;26.324;2024-03-07T01:04:11;98789.31;;;8.52;100.00
21236;BME280;10775;42.678;26.324;2024-03-07T01:06:37;98784.03;;;8.60;100.00
21236;BME280;10775;42.678;26.324;2024-03-07T01:09:03;98787.47;;;8.60;100.00
21236;BME280;10775;42.678;26.324;2024-03-07T01:11:28;98780.59;;;8.55;100.00
21236;BME280;10775;42.678;26.324;2024-03-07T01:13:54;98785.81;;;8.53;100.00
21236;BME280;10775;42.678;26.324;2024-03-07T01:16:21;98783.28;;;8.45;100.00
21236;BME280;10775;42.678;26.324;2024-03-07T01:18:46;98772.81;;;8.50;100.00
21236;BME280;10775;42.678;26.324;2024-03-07T01:21:12;98781.50;;;8.52;100.00
21236;BME280;10775;42.678;26.324;2024-03-07T01:23:38;98778.03;;;8.50;100.00
21236;BME280;10775;42.678;26.324;2024-03-07T01:26:04;98773.72;;;8.46;100.00
21236;BME280;10775;42.678;26.324;2024-03-07T01:28:29;98776.31;;;8.47;100.00
21236;BME280;10775;42.678;26.324;2024-03-07T01:30:55;98776.34;;;8.43;100.00
21236;BME280;10775;42.678;26.324;2024-03-07T01:33:21;98777.25;;;8.42;100.00
21236;BME280;10775;42.678;26.324;2024-03-07T01:35:47;98779.78;;;8.48;100.00
21236;BME280;10775;42.678;26.324;2024-03-07T01:38:13;98774.59;;;8.45;100.00
21236;BME280;10775;42.678;26.324;2024-03-07T01:40:40;98780.69;;;8.47;100.00
21236;BME280;10775;42.678;26.324;2024-03-07T01:43:06;98779.78;;;8.48;100.00
21236;BME280;10775;42.678;26.324;2024-03-07T01:45:33;98778.09;;;8.42;100.00
21236;BME280;10775;42.678;26.324;2024-03-07T01:47:59;98777.25;;;8.39;100.00
21236;BME280;10775;42.678;26.324;2024-03-07T01:50:24;98777.31;;;8.31;100.00
21236;BME280;10775;42.678;26.324;2024-03-07T01:52:50;98769.44;;;8.36;100.00
21236;BME280;10775;42.678;26.324;2024-03-07T01:55:21;98765.13;;;8.33;100.00
21236;BME280;10775;42.678;26.324;2024-03-07T01:57:47;98772.03;;;8.36;100.00
21236;BME280;10775;42.678;26.324;2024-03-07T02:00:13;98766.03;;;8.29;100.00
21236;BME280;10775;42.678;26.324;2024-03-07T02:02:39;98767.00;;;8.19;100.00
21236;BME280;10775;42.678;26.324;2024-03-07T02:05:05;98771.28;;;8.23;100.00
21236;BME280;10775;42.678;26.324;2024-03-07T02:07:31;98766.09;;;8.24;100.00
21236;BME280;10775;42.678;26.324;2024-03-07T02:10:01;98759.97;;;8.27;100.00
21236;BME280;10775;42.678;26.324;2024-03-07T02:12:27;98769.53;;;8.26;100.00
21236;BME280;10775;42.678;26.324;2024-03-07T02:14:55;98775.56;;;8.32;100.00
21236;BME280;10775;42.678;26.324;2024-03-07T02:17:21;98767.69;;;8.38;100.00
21236;BME280;10775;42.678;26.324;2024-03-07T02:19:46;98769.44;;;8.36;100.00
21236;BME280;10775;42.678;26.324;2024-03-07T02:22:12;98763.41;;;8.34;100.00
21236;BME280;10775;42.678;26.324;2024-03-07T02:24:38;98776.41;;;8.35;100.00
21236;BME280;10775;42.678;26.324;2024-03-07T02:27:04;98766.06;;;8.27;100.00
21236;BME280;10775;42.678;26.324;2024-03-07T02:29:29;98768.81;;;8.09;100.00
21236;BME280;10775;42.678;26.324;2024-03-07T02:31:56;98755.88;;;8.00;100.00
21236;BME280;10775;42.678;26.324;2024-03-07T02:34:22;98763.69;;;8.00;100.00
21236;BME280;10775;42.678;26.324;2024-03-07T02:36:47;98763.63;;;8.09;100.00
21236;BME280;10775;42.678;26.324;2024-03-07T02:39:13;98758.38;;;8.14;100.00
21236;BME280;10775;42.678;26.324;2024-03-07T02:41:38;98759.22;;;8.14;100.00
21236;BME280;10775;42.678;26.324;2024-03-07T02:44:04;98759.22;;;8.14;100.00
21236;BME280;10775;42.678;26.324;2024-03-07T02:46:29;98762.69;;;8.16;100.00
21236;BME280;10775;42.678;26.324;2024-03-07T02:48:57;98769.72;;;8.06;100.00
21236;BME280;10775;42.678;26.324;2024-03-07T02:51:23;98760.13;;;8.12;100.00
21236;BME280;10775;42.678;26.324;2024-03-07T02:53:49;98769.59;;;8.20;100.00
21236;BME280;10775;42.678;26.324;2024-03-07T02:56:15;98776.53;;;8.21;100.00
21236;BME280;10775;42.678;26.324;2024-03-07T02:58:40;98774.78;;;8.20;100.00
21236;BME280;10775;42.678;26.324;2024-03-07T03:01:06;98769.69;;;8.10;100.00
21236;BME280;10775;42.678;26.324;2024-03-07T03:03:31;98774.03;;;8.07;100.00
21236;BME280;10775;42.678;26.324;2024-03-07T03:06:00;98771.41;;;8.12;100.00
21236;BME280;10775;42.678;26.324;2024-03-07T03:08:25;98778.34;;;8.13;100.00
21236;BME280;10775;42.678;26.324;2024-03-07T03:10:54;98776.56;;;8.15;100.00
21236;BME280;10775;42.678;26.324;2024-03-07T03:13:20;98777.53;;;8.08;100.00
21236;BME280;10775;42.678;26.324;2024-03-07T03:15:45;98776.63;;;8.11;100.00
21236;BME280;10775;42.678;26.324;2024-03-07T03:18:12;98782.78;;;7.97;100.00
21236;BME280;10775;42.678;26.324;2024-03-07T03:20:38;98780.22;;;7.96;100.00
21236;BME280;10775;42.678;26.324;2024-03-07T03:23:05;98773.31;;;7.87;100.00
21236;BME280;10775;42.678;26.324;2024-03-07T03:25:31;98785.50;;;7.87;100.00
21236;BME280;10775;42.678;26.324;2024-03-07T03:28:01;98769.94;;;7.76;100.00
21236;BME280;10775;42.678;26.324;2024-03-07T03:30:26;98776.88;;;7.78;100.00
21236;BME280;10775;42.678;26.324;2024-03-07T03:32:52;98787.13;;;8.00;100.00
21236;BME280;10775;42.678;26.324;2024-03-07T03:35:17;98777.50;;;8.10;100.00
21236;BME280;10775;42.678;26.324;2024-03-07T03:37:45;98782.66;;;8.13;100.00
21236;BME280;10775;42.678;26.324;2024-03-07T03:40:11;98780.13;;;8.06;100.00
21236;BME280;10775;42.678;26.324;2024-03-07T03:42:41;98781.03;;;8.04;100.00
21236;BME280;10775;42.678;26.324;2024-03-07T03:45:08;98775.91;;;7.93;100.00
21236;BME280;10775;42.678;26.324;2024-03-07T03:47:35;98788.91;;;7.96;100.00
21236;BME280;10775;42.678;26.324;2024-03-07T03:50:02;98783.66;;;7.99;100.00
21236;BME280;10775;42.678;26.324;2024-03-07T03:52:28;98781.91;;;8.00;100.00
21236;BME280;10775;42.678;26.324;2024-03-07T03:54:54;98768.88;;;8.01;100.00
21236;BME280;10775;42.678;26.324;2024-03-07T03:57:19;98778.50;;;7.93;100.00
21236;BME280;10775;42.678;26.324;2024-03-07T03:59:45;98779.38;;;7.95;100.00
21236;BME280;10775;42.678;26.324;2024-03-07T04:02:11;98777.69;;;7.88;100.00
21236;BME280;10775;42.678;26.324;2024-03-07T04:04:40;98776.97;;;7.66;100.00
21236;BME280;10775;42.678;26.324;2024-03-07T04:07:05;98775.22;;;7.68;100.00
21236;BME280;10775;42.678;26.324;2024-03-07T04:09:31;98777.69;;;7.87;100.00
21236;BME280;10775;42.678;26.324;2024-03-07T04:11:57;98775.00;;;8.00;100.00
21236;BME280;10775;42.678;26.324;2024-03-07T04:14:23;98769.75;;;8.02;100.00
21236;BME280;10775;42.678;26.324;2024-03-07T04:16:48;98775.03;;;7.90;100.00
21236;BME280;10775;42.678;26.324;2024-03-07T04:19:15;98777.75;;;7.76;100.00
21236;BME280;10775;42.678;26.324;2024-03-07T04:21:40;98772.63;;;7.63;100.00
21236;BME280;10775;42.678;26.324;2024-03-07T04:24:07;98781.38;;;7.55;100.00
21236;BME280;10775;42.678;26.324;2024-03-07T04:26:32;98776.19;;;7.55;100.00
21236;BME280;10775;42.678;26.324;2024-03-07T04:28:57;98775.28;;;7.56;100.00
21236;BME280;10775;42.678;26.324;2024-03-07T04:31:23;98778.69;;;7.70;100.00
21236;BME280;10775;42.678;26.324;2024-03-07T04:33:49;98773.38;;;7.79;100.00
21236;BME280;10775;42.678;26.324;2024-03-07T04:36:16;98779.41;;;7.91;100.00
21236;BME280;10775;42.678;26.324;2024-03-07T04:38:42;98774.97;;;7.99;100.00
21236;BME280;10775;42.678;26.324;2024-03-07T04:41:13;98774.94;;;8.06;100.00
21236;BME280;10775;42.678;26.324;2024-03-07T04:43:40;98771.47;;;8.06;100.00
21236;BME280;10775;42.678;26.324;2024-03-07T04:46:07;98769.72;;;8.08;100.00
21236;BME280;10775;42.678;26.324;2024-03-07T04:48:33;98781.91;;;8.00;100.00
21236;BME280;10775;42.678;26.324;2024-03-07T04:50:58;98782.84;;;7.91;100.00
21236;BME280;10775;42.678;26.324;2024-03-07T04:53:24;98786.34;;;7.87;100.00
21236;BME280;10775;42.678;26.324;2024-03-07T04:55:49;98785.44;;;7.96;100.00
21236;BME280;10775;42.678;26.324;2024-03-07T04:58:16;98787.16;;;7.97;100.00
21236;BME280;10775;42.678;26.324;2024-03-07T05:00:41;98780.09;;;8.10;100.00
21236;BME280;10775;42.678;26.324;2024-03-07T05:03:07;98784.44;;;8.09;100.00
21236;BME280;10775;42.678;26.324;2024-03-07T05:05:32;98774.06;;;8.06;100.00
21236;BME280;10775;42.678;26.324;2024-03-07T05:07:58;98770.63;;;8.01;100.00
21236;BME280;10775;42.678;26.324;2024-03-07T05:10:23;98778.50;;;7.92;100.00
21236;BME280;10775;42.678;26.324;2024-03-07T05:12:49;98784.63;;;7.86;100.00
21236;BME280;10775;42.678;26.324;2024-03-07T05:15:15;98789.75;;;7.97;100.00
21236;BME280;10775;42.678;26.324;2024-03-07T05:17:41;98794.84;;;8.12;100.00
21236;BME280;10775;42.678;26.324;2024-03-07T05:20:08;98799.13;;;8.19;100.00
21236;BME280;10775;42.678;26.324;2024-03-07T05:22:38;98801.72;;;8.21;100.00
21236;BME280;10775;42.678;26.324;2024-03-07T05:25:09;98800.84;;;8.20;100.00
21236;BME280;10775;42.678;26.324;2024-03-07T05:27:35;98813.97;;;8.08;100.00
21236;BME280;10775;42.678;26.324;2024-03-07T05:30:02;98815.78;;;7.98;100.00
21236;BME280;10775;42.678;26.324;2024-03-07T05:32:30;98819.31;;;7.93;100.00
21236;BME280;10775;42.678;26.324;2024-03-07T05:34:56;98814.94;;;7.95;100.00
21236;BME280;10775;42.678;26.324;2024-03-07T05:37:22;98818.56;;;7.75;100.00
21236;BME280;10775;42.678;26.324;2024-03-07T05:39:51;98816.72;;;7.88;100.00
21236;BME280;10775;42.678;26.324;2024-03-07T05:42:17;98824.56;;;7.82;100.00
21236;BME280;10775;42.678;26.324;2024-03-07T05:44:44;98835.91;;;7.73;100.00
21236;BME280;10775;42.678;26.324;2024-03-07T05:47:10;98832.53;;;7.56;100.00
21236;BME280;10775;42.678;26.324;2024-03-07T05:49:36;98838.72;;;7.35;100.00
21236;BME280;10775;42.678;26.324;2024-03-07T05:52:03;98828.41;;;7.13;100.00
21236;BME280;10775;42.678;26.324;2024-03-07T05:54:28;98835.34;;;7.08;100.00
21236;BME280;10775;42.678;26.324;2024-03-07T05:56:54;98841.31;;;7.36;100.00
21236;BME280;10775;42.678;26.324;2024-03-07T05:59:20;98837.75;;;7.57;100.00
21236;BME280;10775;42.678;26.324;2024-03-07T06:01:46;98841.13;;;7.70;100.00
21236;BME280;10775;42.678;26.324;2024-03-07T06:04:12;98838.50;;;7.73;100.00
21236;BME280;10775;42.678;26.324;2024-03-07T06:06:38;98843.78;;;7.61;100.00
21236;BME280;10775;42.678;26.324;2024-03-07T06:09:05;98843.94;;;7.29;100.00
21236;BME280;10775;42.678;26.324;2024-03-07T06:11:34;98839.50;;;7.52;100.00
21236;BME280;10775;42.678;26.324;2024-03-07T06:14:01;98844.69;;;7.51;100.00
21236;BME280;10775;42.678;26.324;2024-03-07T06:16:30;98836.84;;;7.63;100.00
21236;BME280;10775;42.678;26.324;2024-03-07T06:19:01;98837.56;;;7.82;100.00
21236;BME280;10775;42.678;26.324;2024-03-07T06:21:27;98841.06;;;7.79;100.00
21236;BME280;10775;42.678;26.324;2024-03-07T06:23:56;98838.63;;;7.55;100.00
21236;BME280;10775;42.678;26.324;2024-03-07T06:26:35;98852.41;;;7.66;100.00
21236;BME280;10775;42.678;26.324;2024-03-07T06:29:07;98855.88;;;7.73;100.00
21236;BME280;10775;42.678;26.324;2024-03-07T06:31:34;98852.34;;;7.83;100.00
21236;BME280;10775;42.678;26.324;2024-03-07T06:34:03;98855.78;;;7.82;100.00
21236;BME280;10775;42.678;26.324;2024-03-07T06:36:28;98854.06;;;7.79;100.00
21236;BME280;10775;42.678;26.324;2024-03-07T06:38:54;98851.59;;;7.62;100.00
21236;BME280;10775;42.678;26.324;2024-03-07T06:41:19;98851.69;;;7.43;100.00
21236;BME280;10775;42.678;26.324;2024-03-07T06:43:45;98852.59;;;7.31;100.00
21236;BME280;10775;42.678;26.324;2024-03-07T06:46:11;98852.53;;;7.46;100.00
21236;BME280;10775;42.678;26.324;2024-03-07T06:48:38;98847.16;;;7.74;100.00
21236;BME280;10775;42.678;26.324;2024-03-07T06:51:05;98845.28;;;8.00;100.00
21236;BME280;10775;42.678;26.324;2024-03-07T06:53:31;98850.50;;;8.00;100.00
21236;BME280;10775;42.678;26.324;2024-03-07T06:55:56;98851.38;;;7.96;100.00
21236;BME280;10775;42.678;26.324;2024-03-07T06:58:21;98857.50;;;7.89;100.00
21236;BME280;10775;42.678;26.324;2024-03-07T07:00:48;98860.03;;;8.03;100.00
21236;BME280;10775;42.678;26.324;2024-03-07T07:03:17;98857.28;;;8.20;100.00
21236;BME280;10775;42.678;26.324;2024-03-07T07:05:44;98863.50;;;7.99;100.00
21236;BME280;10775;42.678;26.324;2024-03-07T07:08:10;98869.69;;;7.82;100.00
21236;BME280;10775;42.678;26.324;2024-03-07T07:10:36;98861.78;;;8.01;100.00
21236;BME280;10775;42.678;26.324;2024-03-07T07:13:02;98852.00;;;8.27;100.00
21236;BME280;10775;42.678;26.324;2024-03-07T07:15:29;98858.91;;;8.39;100.00
21236;BME280;10775;42.678;26.324;2024-03-07T07:17:55;98866.59;;;8.53;100.00
21236;BME280;10775;42.678;26.324;2024-03-07T07:20:20;98857.94;;;8.49;100.00
21236;BME280;10775;42.678;26.324;2024-03-07T07:22:49;98861.50;;;8.35;100.00
21236;BME280;10775;42.678;26.324;2024-03-07T07:25:16;98860.84;;;8.05;99.12
21236;BME280;10775;42.678;26.324;2024-03-07T07:27:44;98865.09;;;8.21;100.00
21236;BME280;10775;42.678;26.324;2024-03-07T07:30:10;98865.78;;;8.48;100.00
21236;BME280;10775;42.678;26.324;2024-03-07T07:32:37;98862.25;;;8.57;100.00
21236;BME280;10775;42.678;26.324;2024-03-07T07:35:04;98863.06;;;8.60;99.82
21236;BME280;10775;42.678;26.324;2024-03-07T07:37:35;98859.66;;;8.52;100.00
21236;BME280;10775;42.678;26.324;2024-03-07T07:40:02;98864.81;;;8.58;100.00
21236;BME280;10775;42.678;26.324;2024-03-07T07:42:28;98865.75;;;8.53;97.88
21236;BME280;10775;42.678;26.324;2024-03-07T07:44:53;98860.56;;;8.48;100.00
21236;BME280;10775;42.678;26.324;2024-03-07T07:47:19;98850.59;;;8.93;100.00
21236;BME280;10775;42.678;26.324;2024-03-07T07:49:44;98865.94;;;9.18;99.52
21236;BME280;10775;42.678;26.324;2024-03-07T07:52:09;98861.38;;;9.36;96.33
21236;BME280;10775;42.678;26.324;2024-03-07T07:54:35;98855.28;;;9.39;96.89
21236;BME280;10775;42.678;26.324;2024-03-07T07:57:00;98868.06;;;9.57;98.39
21236;BME280;10775;42.678;26.324;2024-03-07T07:59:26;98866.16;;;9.72;98.17
21236;BME280;10775;42.678;26.324;2024-03-07T08:01:51;98865.47;;;9.57;95.23
21236;BME280;10775;42.678;26.324;2024-03-07T08:04:21;98864.59;;;9.57;95.77
21236;BME280;10775;42.678;26.324;2024-03-07T08:06:46;98868.19;;;9.48;96.40
21236;BME280;10775;42.678;26.324;2024-03-07T08:09:12;98865.75;;;9.36;96.17
21236;BME280;10775;42.678;26.324;2024-03-07T08:11:42;98869.44;;;9.86;99.73
21236;BME280;10775;42.678;26.324;2024-03-07T08:14:07;98867.19;;;10.20;100.00
21236;BME280;10775;42.678;26.324;2024-03-07T08:16:33;98866.22;;;10.29;97.92
21236;BME280;10775;42.678;26.324;2024-03-07T08:18:59;98868.81;;;9.67;91.29
21236;BME280;10775;42.678;26.324;2024-03-07T08:21:24;98873.59;;;9.99;96.90
21236;BME280;10775;42.678;26.324;2024-03-07T08:23:50;98867.16;;;10.23;100.00
21236;BME280;10775;42.678;26.324;2024-03-07T08:26:15;98866.53;;;10.63;100.00
21236;BME280;10775;42.678;26.324;2024-03-07T08:28:43;98865.66;;;10.63;96.90
21236;BME280;10775;42.678;26.324;2024-03-07T08:31:09;98868.56;;;10.44;96.52
21236;BME280;10775;42.678;26.324;2024-03-07T08:33:35;98877.25;;;10.48;98.37
21236;BME280;10775;42.678;26.324;2024-03-07T08:36:00;98869.13;;;10.08;100.00
21236;BME280;10775;42.678;26.324;2024-03-07T08:38:26;98872.34;;;9.63;90.45
21236;BME280;10775;42.678;26.324;2024-03-07T08:40:52;98868.84;;;9.66;98.38
21236;BME280;10775;42.678;26.324;2024-03-07T08:43:17;98869.81;;;10.20;100.00
21236;BME280;10775;42.678;26.324;2024-03-07T08:45:43;98866.88;;;10.43;100.00
21236;BME280;10775;42.678;26.324;2024-03-07T08:48:08;98869.63;;;10.34;93.70
21236;BME280;10775;42.678;26.324;2024-03-07T08:50:35;98863.28;;;10.49;100.00
21236;BME280;10775;42.678;26.324;2024-03-07T08:53:03;98869.13;;;10.08;93.45
21236;BME280;10775;42.678;26.324;2024-03-07T08:55:31;98868.97;;;10.17;100.00
21236;BME280;10775;42.678;26.324;2024-03-07T08:57:57;98880.25;;;10.20;100.00
21236;BME280;10775;42.678;26.324;2024-03-07T09:00:22;98872.69;;;10.61;100.00
21236;BME280;10775;42.678;26.324;2024-03-07T09:02:52;98875.97;;;10.72;100.00
21236;BME280;10775;42.678;26.324;2024-03-07T09:05:19;98869.81;;;10.75;100.00
21236;BME280;10775;42.678;26.324;2024-03-07T09:07:45;98868.97;;;10.74;100.00
21236;BME280;10775;42.678;26.324;2024-03-07T09:10:12;98874.59;;;9.89;95.16
21236;BME280;10775;42.678;26.324;2024-03-07T09:12:40;98868.91;;;10.23;100.00
21236;BME280;10775;42.678;26.324;2024-03-07T09:15:06;98866.53;;;10.08;100.00
21236;BME280;10775;42.678;26.324;2024-03-07T09:17:32;98868.28;;;10.04;100.00
21236;BME280;10775;42.678;26.324;2024-03-07T09:19:57;98875.13;;;10.14;100.00
21236;BME280;10775;42.678;26.324;2024-03-07T09:22:23;98870.84;;;10.07;100.00
21236;BME280;10775;42.678;26.324;2024-03-07T09:24:48;98873.88;;;10.40;100.00
21236;BME280;10775;42.678;26.324;2024-03-07T09:27:19;98871.19;;;10.44;100.00
21236;BME280;10775;42.678;26.324;2024-03-07T09:29:47;98875.00;;;10.22;100.00
21236;BME280;10775;42.678;26.324;2024-03-07T09:32:15;98875.00;;;10.22;100.00
21236;BME280;10775;42.678;26.324;2024-03-07T09:34:40;98877.56;;;10.28;100.00
21236;BME280;10775;42.678;26.324;2024-03-07T09:37:06;98874.91;;;10.30;100.00
21236;BME280;10775;42.678;26.324;2024-03-07T09:39:33;98880.31;;;10.16;100.00
21236;BME280;10775;42.678;26.324;2024-03-07T09:42:03;98878.69;;;10.09;100.00
21236;BME280;10775;42.678;26.324;2024-03-07T09:44:34;98885.03;;;9.92;100.00
21236;BME280;10775;42.678;26.324;2024-03-07T09:47:00;98879.69;;;9.98;100.00
21236;BME280;10775;42.678;26.324;2024-03-07T09:49:28;98882.53;;;9.82;100.00
21236;BME280;10775;42.678;26.324;2024-03-07T09:51:55;98883.22;;;9.31;97.13
21236;BME280;10775;42.678;26.324;2024-03-07T09:54:24;98882.56;;;9.10;100.00
21236;BME280;10775;42.678;26.324;2024-03-07T09:56:53;98892.19;;;9.05;100.00
21236;BME280;10775;42.678;26.324;2024-03-07T09:59:19;98878.97;;;9.21;100.00
21236;BME280;10775;42.678;26.324;2024-03-07T10:01:50;98880.19;;;9.63;100.00
21236;BME280;10775;42.678;26.324;2024-03-07T10:04:21;98879.81;;;9.89;100.00
21236;BME280;10775;42.678;26.324;2024-03-07T10:06:52;98883.19;;;9.99;100.00
21236;BME280;10775;42.678;26.324;2024-03-07T10:09:20;98882.31;;;9.98;100.00
21236;BME280;10775;42.678;26.324;2024-03-07T10:11:58;98873.56;;;10.02;100.00
21236;BME280;10775;42.678;26.324;2024-03-07T10:14:24;98882.19;;;10.08;100.00
21236;BME280;10775;42.678;26.324;2024-03-07T10:16:50;98884.75;;;10.09;100.00
21236;BME280;10775;42.678;26.324;2024-03-07T10:19:15;98883.13;;;10.04;100.00
21236;BME280;10775;42.678;26.324;2024-03-07T10:21:41;98884.88;;;10.01;100.00
21236;BME280;10775;42.678;26.324;2024-03-07T10:24:07;98890.16;;;9.98;100.00
21236;BME280;10775;42.678;26.324;2024-03-07T10:26:37;98885.09;;;9.86;100.00
21236;BME280;10775;42.678;26.324;2024-03-07T10:29:07;98888.66;;;9.79;100.00
21236;BME280;10775;42.678;26.324;2024-03-07T10:31:35;98880.94;;;9.73;100.00
21236;BME280;10775;42.678;26.324;2024-03-07T10:34:04;98886.44;;;9.51;100.00
21236;BME280;10775;42.678;26.324;2024-03-07T10:36:30;98878.72;;;9.42;100.00
21236;BME280;10775;42.678;26.324;2024-03-07T10:39:00;98881.50;;;9.27;100.00
21236;BME280;10775;42.678;26.324;2024-03-07T10:41:46;98880.50;;;9.39;100.00
21236;BME280;10775;42.678;26.324;2024-03-07T10:46:46;98885.94;;;9.19;100.00
21236;BME280;10775;42.678;26.324;2024-03-07T10:49:15;98886.75;;;9.24;100.00
21236;BME280;10775;42.678;26.324;2024-03-07T10:51:46;98884.25;;;9.14;100.00
21236;BME280;10775;42.678;26.324;2024-03-07T10:54:20;98881.72;;;9.07;100.00
21236;BME280;10775;42.678;26.324;2024-03-07T10:56:51;98881.03;;;8.89;100.00
21236;BME280;10775;42.678;26.324;2024-03-07T10:59:25;98874.00;;;8.98;100.00
21236;BME280;10775;42.678;26.324;2024-03-07T11:02:17;98870.09;;;9.35;100.00
21236;BME280;10775;42.678;26.324;2024-03-07T11:04:47;98876.06;;;9.45;100.00
21236;BME280;10775;42.678;26.324;2024-03-07T11:07:15;98866.28;;;9.61;100.00
21236;BME280;10775;42.678;26.324;2024-03-07T11:09:42;98873.41;;;9.50;100.00
21236;BME280;10775;42.678;26.324;2024-03-07T11:12:11;98869.03;;;9.50;100.00
21236;BME280;10775;42.678;26.324;2024-03-07T11:14:37;98870.03;;;9.42;100.00
21236;BME280;10775;42.678;26.324;2024-03-07T11:17:04;98861.16;;;9.56;100.00
21236;BME280;10775;42.678;26.324;2024-03-07T11:19:33;98862.84;;;9.57;100.00
21236;BME280;10775;42.678;26.324;2024-03-07T11:22:02;98860.91;;;9.75;100.00
21236;BME280;10775;42.678;26.324;2024-03-07T11:24:39;98866.16;;;9.72;100.00
21236;BME280;10775;42.678;26.324;2024-03-07T11:27:04;98864.72;;;9.48;100.00
21236;BME280;10775;42.678;26.324;2024-03-07T11:32:18;98866.66;;;9.30;100.00
21236;BME280;10775;42.678;26.324;2024-03-07T11:34:46;98869.19;;;9.38;100.00
21236;BME280;10775;42.678;26.324;2024-03-07T11:37:38;98871.06;;;9.27;100.00
21236;BME280;10775;42.678;26.324;2024-03-07T11:42:49;98873.16;;;8.96;100.00
21236;BME280;10775;42.678;26.324;2024-03-07T11:45:16;98875.44;;;9.25;100.00
21236;BME280;10775;42.678;26.324;2024-03-07T11:47:56;98867.50;;;9.34;100.00
21236;BME280;10775;42.678;26.324;2024-03-07T11:50:40;98867.56;;;9.28;100.00
21236;BME280;10775;42.678;26.324;2024-03-07T11:53:07;98868.59;;;9.16;100.00
21236;BME280;10775;42.678;26.324;2024-03-07T11:55:37;98860.00;;;9.08;100.00
21236;BME280;10775;42.678;26.324;2024-03-07T11:58:21;98868.53;;;9.21;100.00
21236;BME280;10775;42.678;26.324;2024-03-07T12:00:48;98864.94;;;9.28;100.00
21236;BME280;10775;42.678;26.324;2024-03-07T12:03:17;98863.97;;;9.38;100.00
21236;BME280;10775;42.678;26.324;2024-03-07T12:05:46;98855.06;;;9.53;100.00
21236;BME280;10775;42.678;26.324;2024-03-07T12:08:13;98866.31;;;9.60;100.00
21236;BME280;10775;42.678;26.324;2024-03-07T12:10:39;98861.81;;;9.71;100.00
21236;BME280;10775;42.678;26.324;2024-03-07T12:13:08;98860.03;;;9.74;100.00
21236;BME280;10775;42.678;26.324;2024-03-07T12:15:38;98865.06;;;9.88;100.00
21236;BME280;10775;42.678;26.324;2024-03-07T12:18:04;98858.34;;;9.69;100.00
21236;BME280;10775;42.678;26.324;2024-03-07T12:20:35;98855.94;;;9.55;100.00
21236;BME280;10775;42.678;26.324;2024-03-07T12:23:01;98861.31;;;9.43;100.00
21236;BME280;10775;42.678;26.324;2024-03-07T12:25:28;98859.28;;;9.65;100.00
21236;BME280;10775;42.678;26.324;2024-03-07T12:28:01;98861.16;;;9.56;100.00
21236;BME280;10775;42.678;26.324;2024-03-07T12:30:32;98867.63;;;9.23;100.00
21236;BME280;10775;42.678;26.324;2024-03-07T12:32:59;98861.06;;;8.87;100.00
21236;BME280;10775;42.678;26.324;2024-03-07T12:35:26;98868.41;;;9.30;100.00
21236;BME280;10775;42.678;26.324;2024-03-07T12:37:52;98865.41;;;9.62;100.00
21236;BME280;10775;42.678;26.324;2024-03-07T12:40:19;98873.31;;;9.56;100.00
21236;BME280;10775;42.678;26.324;2024-03-07T12:42:47;98867.00;;;9.00;100.00
21236;BME280;10775;42.678;26.324;2024-03-07T12:45:13;98865.13;;;9.14;100.00
21236;BME280;10775;42.678;26.324;2024-03-07T12:47:43;98856.88;;;9.48;100.00
21236;BME280;10775;42.678;26.324;2024-03-07T12:50:09;98852.78;;;9.93;100.00
21236;BME280;10775;42.678;26.324;2024-03-07T12:52:34;98851.75;;;10.05;100.00
21236;BME280;10775;42.678;26.324;2024-03-07T12:55:00;98844.72;;;10.09;100.00
21236;BME280;10775;42.678;26.324;2024-03-07T12:57:25;98845.41;;;10.20;100.00